sensor_id;sensor_type;location;lat;lon;timestamp;P1;durP1;ratioP1;P2;durP2;ratioP2
48685;SDS011;34485;51.536;3.816;2024-03-25T00:00:19;16.75;;;4.07;;
48685;SDS011;34485;51.536;3.816;2024-03-25T00:02:46;16.00;;;3.67;;
48685;SDS011;34485;51.536;3.816;2024-03-25T00:05:12;8.35;;;3.40;;
48685;SDS011;34485;51.536;3.816;2024-03-25T00:07:40;20.40;;;3.60;;
48685;SDS011;34485;51.536;3.816;2024-03-25T00:10:06;4.95;;;3.78;;
48685;SDS011;34485;51.536;3.816;2024-03-25T00:12:33;18.70;;;5.20;;
48685;SDS011;34485;51.536;3.816;2024-03-25T00:15:02;9.70;;;3.60;;
48685;SDS011;34485;51.536;3.816;2024-03-25T00:17:28;14.60;;;3.45;;
48685;SDS011;34485;51.536;3.816;2024-03-25T00:19:53;15.95;;;3.25;;
48685;SDS011;34485;51.536;3.816;2024-03-25T00:22:21;16.33;;;4.17;;
48685;SDS011;34485;51.536;3.816;2024-03-25T00:24:50;13.05;;;3.95;;
48685;SDS011;34485;51.536;3.816;2024-03-25T00:27:16;10.70;;;3.65;;
48685;SDS011;34485;51.536;3.816;2024-03-25T00:29:43;20.25;;;4.55;;
48685;SDS011;34485;51.536;3.816;2024-03-25T00:32:09;9.90;;;3.88;;
48685;SDS011;34485;51.536;3.816;2024-03-25T00:34:35;12.10;;;3.00;;
48685;SDS011;34485;51.536;3.816;2024-03-25T00:37:02;13.95;;;4.25;;
48685;SDS011;34485;51.536;3.816;2024-03-25T00:39:29;18.15;;;4.55;;
48685;SDS011;34485;51.536;3.816;2024-03-25T00:41:57;14.02;;;3.35;;
48685;SDS011;34485;51.536;3.816;2024-03-25T00:44:23;16.52;;;4.13;;
48685;SDS011;34485;51.536;3.816;2024-03-25T00:46:49;8.70;;;3.67;;
48685;SDS011;34485;51.536;3.816;2024-03-25T00:49:15;15.43;;;4.03;;
48685;SDS011;34485;51.536;3.816;2024-03-25T00:51:41;13.45;;;3.55;;
48685;SDS011;34485;51.536;3.816;2024-03-25T00:54:06;7.72;;;2.80;;
48685;SDS011;34485;51.536;3.816;2024-03-25T00:56:32;7.38;;;3.35;;
48685;SDS011;34485;51.536;3.816;2024-03-25T00:58:58;13.07;;;3.07;;
48685;SDS011;34485;51.536;3.816;2024-03-25T01:01:28;14.82;;;3.05;;
48685;SDS011;34485;51.536;3.816;2024-03-25T01:03:54;9.20;;;2.70;;
48685;SDS011;34485;51.536;3.816;2024-03-25T01:06:20;5.80;;;2.97;;
48685;SDS011;34485;51.536;3.816;2024-03-25T01:08:45;9.90;;;3.27;;
48685;SDS011;34485;51.536;3.816;2024-03-25T01:11:11;11.50;;;3.70;;
48685;SDS011;34485;51.536;3.816;2024-03-25T01:13:37;13.63;;;3.40;;
48685;SDS011;34485;51.536;3.816;2024-03-25T01:16:02;15.13;;;2.90;;
48685;SDS011;34485;51.536;3.816;2024-03-25T01:18:28;10.05;;;2.47;;
48685;SDS011;34485;51.536;3.816;2024-03-25T01:20:54;7.97;;;2.88;;
48685;SDS011;34485;51.536;3.816;2024-03-25T01:23:20;8.40;;;4.13;;
48685;SDS011;34485;51.536;3.816;2024-03-25T01:25:45;11.45;;;3.38;;
48685;SDS011;34485;51.536;3.816;2024-03-25T01:28:11;10.27;;;3.58;;
48685;SDS011;34485;51.536;3.816;2024-03-25T01:30:36;9.23;;;3.70;;
48685;SDS011;34485;51.536;3.816;2024-03-25T01:33:04;17.00;;;3.40;;
48685;SDS011;34485;51.536;3.816;2024-03-25T01:35:30;14.00;;;4.55;;
48685;SDS011;34485;51.536;3.816;2024-03-25T01:37:56;14.13;;;4.03;;
48685;SDS011;34485;51.536;3.816;2024-03-25T01:40:22;8.75;;;3.80;;
48685;SDS011;34485;51.536;3.816;2024-03-25T01:42:58;10.95;;;3.72;;
48685;SDS011;34485;51.536;3.816;2024-03-25T01:45:25;12.82;;;3.67;;
48685;SDS011;34485;51.536;3.816;2024-03-25T01:47:52;10.13;;;4.13;;
48685;SDS011;34485;51.536;3.816;2024-03-25T01:50:19;8.40;;;3.42;;
48685;SDS011;34485;51.536;3.816;2024-03-25T01:52:46;10.87;;;3.33;;
48685;SDS011;34485;51.536;3.816;2024-03-25T01:55:15;10.43;;;4.63;;
48685;SDS011;34485;51.536;3.816;2024-03-25T01:57:51;18.02;;;5.72;;
48685;SDS011;34485;51.536;3.816;2024-03-25T02:00:17;13.82;;;5.43;;
48685;SDS011;34485;51.536;3.816;2024-03-25T02:02:44;14.15;;;5.80;;
48685;SDS011;34485;51.536;3.816;2024-03-25T02:05:11;12.63;;;5.40;;
48685;SDS011;34485;51.536;3.816;2024-03-25T02:07:37;17.17;;;5.10;;
48685;SDS011;34485;51.536;3.816;2024-03-25T02:10:03;14.18;;;5.25;;
48685;SDS011;34485;51.536;3.816;2024-03-25T02:12:30;21.17;;;5.72;;
48685;SDS011;34485;51.536;3.816;2024-03-25T02:14:56;20.98;;;6.80;;
48685;SDS011;34485;51.536;3.816;2024-03-25T02:17:23;16.40;;;6.20;;
48685;SDS011;34485;51.536;3.816;2024-03-25T02:19:49;19.30;;;5.60;;
48685;SDS011;34485;51.536;3.816;2024-03-25T02:22:15;13.35;;;6.70;;
48685;SDS011;34485;51.536;3.816;2024-03-25T02:24:41;17.90;;;6.78;;
48685;SDS011;34485;51.536;3.816;2024-03-25T02:27:10;13.38;;;5.25;;
48685;SDS011;34485;51.536;3.816;2024-03-25T02:29:39;9.23;;;4.72;;
48685;SDS011;34485;51.536;3.816;2024-03-25T02:32:06;8.93;;;5.15;;
48685;SDS011;34485;51.536;3.816;2024-03-25T02:34:36;12.65;;;6.03;;
48685;SDS011;34485;51.536;3.816;2024-03-25T02:37:07;13.68;;;6.60;;
48685;SDS011;34485;51.536;3.816;2024-03-25T02:39:34;24.27;;;9.65;;
48685;SDS011;34485;51.536;3.816;2024-03-25T02:42:00;15.88;;;7.45;;
48685;SDS011;34485;51.536;3.816;2024-03-25T02:44:26;12.55;;;7.35;;
48685;SDS011;34485;51.536;3.816;2024-03-25T02:46:52;9.73;;;7.13;;
48685;SDS011;34485;51.536;3.816;2024-03-25T02:49:18;11.80;;;5.63;;
48685;SDS011;34485;51.536;3.816;2024-03-25T02:51:43;11.07;;;7.50;;
48685;SDS011;34485;51.536;3.816;2024-03-25T02:54:09;15.20;;;7.40;;
48685;SDS011;34485;51.536;3.816;2024-03-25T02:56:35;15.32;;;6.43;;
48685;SDS011;34485;51.536;3.816;2024-03-25T02:59:01;16.33;;;7.23;;
48685;SDS011;34485;51.536;3.816;2024-03-25T03:01:27;11.18;;;7.53;;
48685;SDS011;34485;51.536;3.816;2024-03-25T03:03:53;17.55;;;8.38;;
48685;SDS011;34485;51.536;3.816;2024-03-25T03:06:18;12.83;;;6.20;;
48685;SDS011;34485;51.536;3.816;2024-03-25T03:08:44;20.77;;;7.75;;
48685;SDS011;34485;51.536;3.816;2024-03-25T03:11:10;17.90;;;7.57;;
48685;SDS011;34485;51.536;3.816;2024-03-25T03:13:35;16.83;;;8.27;;
48685;SDS011;34485;51.536;3.816;2024-03-25T03:16:01;10.77;;;6.40;;
48685;SDS011;34485;51.536;3.816;2024-03-25T03:18:27;14.05;;;5.43;;
48685;SDS011;34485;51.536;3.816;2024-03-25T03:20:53;11.50;;;5.82;;
48685;SDS011;34485;51.536;3.816;2024-03-25T03:23:22;12.15;;;6.65;;
48685;SDS011;34485;51.536;3.816;2024-03-25T03:25:48;17.35;;;6.25;;
48685;SDS011;34485;51.536;3.816;2024-03-25T03:28:14;20.88;;;8.10;;
48685;SDS011;34485;51.536;3.816;2024-03-25T03:30:40;13.23;;;7.50;;
48685;SDS011;34485;51.536;3.816;2024-03-25T03:33:06;13.53;;;7.80;;
48685;SDS011;34485;51.536;3.816;2024-03-25T03:35:35;9.38;;;6.38;;
48685;SDS011;34485;51.536;3.816;2024-03-25T03:38:01;13.32;;;6.03;;
48685;SDS011;34485;51.536;3.816;2024-03-25T03:40:27;12.48;;;7.07;;
48685;SDS011;34485;51.536;3.816;2024-03-25T03:42:54;18.88;;;8.73;;
48685;SDS011;34485;51.536;3.816;2024-03-25T03:45:19;20.98;;;8.30;;
48685;SDS011;34485;51.536;3.816;2024-03-25T03:47:46;19.52;;;7.38;;
48685;SDS011;34485;51.536;3.816;2024-03-25T03:50:12;14.23;;;8.17;;
48685;SDS011;34485;51.536;3.816;2024-03-25T03:52:37;13.60;;;7.78;;
48685;SDS011;34485;51.536;3.816;2024-03-25T03:55:03;12.80;;;5.60;;
48685;SDS011;34485;51.536;3.816;2024-03-25T03:57:30;13.00;;;7.38;;
48685;SDS011;34485;51.536;3.816;2024-03-25T03:59:57;11.85;;;7.45;;
48685;SDS011;34485;51.536;3.816;2024-03-25T04:02:23;13.23;;;6.40;;
48685;SDS011;34485;51.536;3.816;2024-03-25T04:04:50;22.30;;;8.25;;
48685;SDS011;34485;51.536;3.816;2024-03-25T04:07:16;19.88;;;7.82;;
48685;SDS011;34485;51.536;3.816;2024-03-25T04:09:42;17.40;;;6.90;;
48685;SDS011;34485;51.536;3.816;2024-03-25T04:12:08;20.95;;;8.05;;
48685;SDS011;34485;51.536;3.816;2024-03-25T04:14:34;14.70;;;7.43;;
48685;SDS011;34485;51.536;3.816;2024-03-25T04:16:59;17.07;;;7.77;;
48685;SDS011;34485;51.536;3.816;2024-03-25T04:19:26;14.10;;;7.72;;
48685;SDS011;34485;51.536;3.816;2024-03-25T04:21:55;19.38;;;8.98;;
48685;SDS011;34485;51.536;3.816;2024-03-25T04:24:21;17.87;;;7.47;;
48685;SDS011;34485;51.536;3.816;2024-03-25T04:26:47;19.13;;;8.63;;
48685;SDS011;34485;51.536;3.816;2024-03-25T04:29:12;25.97;;;8.27;;
48685;SDS011;34485;51.536;3.816;2024-03-25T04:31:39;15.27;;;8.00;;
48685;SDS011;34485;51.536;3.816;2024-03-25T04:34:05;23.08;;;9.43;;
48685;SDS011;34485;51.536;3.816;2024-03-25T04:36:31;30.73;;;10.43;;
48685;SDS011;34485;51.536;3.816;2024-03-25T04:38:56;19.17;;;8.83;;
48685;SDS011;34485;51.536;3.816;2024-03-25T04:41:22;22.35;;;10.20;;
48685;SDS011;34485;51.536;3.816;2024-03-25T04:43:48;21.73;;;10.18;;
48685;SDS011;34485;51.536;3.816;2024-03-25T04:46:14;19.98;;;9.00;;
48685;SDS011;34485;51.536;3.816;2024-03-25T04:48:39;19.97;;;9.83;;
48685;SDS011;34485;51.536;3.816;2024-03-25T04:51:05;26.25;;;11.02;;
48685;SDS011;34485;51.536;3.816;2024-03-25T04:53:31;23.23;;;11.15;;
48685;SDS011;34485;51.536;3.816;2024-03-25T04:55:57;26.67;;;13.23;;
48685;SDS011;34485;51.536;3.816;2024-03-25T04:58:23;25.83;;;12.35;;
48685;SDS011;34485;51.536;3.816;2024-03-25T05:00:48;25.00;;;13.33;;
48685;SDS011;34485;51.536;3.816;2024-03-25T05:03:14;30.43;;;13.20;;
48685;SDS011;34485;51.536;3.816;2024-03-25T05:05:40;37.90;;;12.18;;
48685;SDS011;34485;51.536;3.816;2024-03-25T05:08:06;24.30;;;13.00;;
48685;SDS011;34485;51.536;3.816;2024-03-25T05:10:31;23.33;;;12.10;;
48685;SDS011;34485;51.536;3.816;2024-03-25T05:12:57;31.30;;;13.63;;
48685;SDS011;34485;51.536;3.816;2024-03-25T05:15:23;25.40;;;13.43;;
48685;SDS011;34485;51.536;3.816;2024-03-25T05:17:48;23.60;;;13.38;;
48685;SDS011;34485;51.536;3.816;2024-03-25T05:20:14;27.90;;;12.57;;
48685;SDS011;34485;51.536;3.816;2024-03-25T05:22:40;28.15;;;13.10;;
48685;SDS011;34485;51.536;3.816;2024-03-25T05:25:05;35.42;;;15.75;;
48685;SDS011;34485;51.536;3.816;2024-03-25T05:27:31;30.08;;;14.85;;
48685;SDS011;34485;51.536;3.816;2024-03-25T05:29:57;28.57;;;14.23;;
48685;SDS011;34485;51.536;3.816;2024-03-25T05:32:22;33.63;;;16.40;;
48685;SDS011;34485;51.536;3.816;2024-03-25T05:34:48;38.45;;;17.10;;
48685;SDS011;34485;51.536;3.816;2024-03-25T05:37:14;31.53;;;15.93;;
48685;SDS011;34485;51.536;3.816;2024-03-25T05:39:40;37.97;;;15.30;;
48685;SDS011;34485;51.536;3.816;2024-03-25T05:42:05;34.38;;;17.98;;
48685;SDS011;34485;51.536;3.816;2024-03-25T05:44:31;40.05;;;16.85;;
48685;SDS011;34485;51.536;3.816;2024-03-25T05:46:57;41.72;;;17.85;;
48685;SDS011;34485;51.536;3.816;2024-03-25T05:49:23;42.57;;;17.23;;
48685;SDS011;34485;51.536;3.816;2024-03-25T05:51:48;40.28;;;17.83;;
48685;SDS011;34485;51.536;3.816;2024-03-25T05:54:14;42.63;;;16.70;;
48685;SDS011;34485;51.536;3.816;2024-03-25T05:56:40;51.17;;;20.52;;
48685;SDS011;34485;51.536;3.816;2024-03-25T05:59:05;51.13;;;18.23;;
48685;SDS011;34485;51.536;3.816;2024-03-25T06:01:31;56.07;;;20.80;;
48685;SDS011;34485;51.536;3.816;2024-03-25T06:03:57;56.47;;;21.48;;
48685;SDS011;34485;51.536;3.816;2024-03-25T06:06:22;40.93;;;19.53;;
48685;SDS011;34485;51.536;3.816;2024-03-25T06:08:49;34.70;;;18.17;;
48685;SDS011;34485;51.536;3.816;2024-03-25T06:11:15;41.88;;;18.92;;
48685;SDS011;34485;51.536;3.816;2024-03-25T06:13:45;48.08;;;19.98;;
48685;SDS011;34485;51.536;3.816;2024-03-25T06:16:12;40.80;;;19.98;;
48685;SDS011;34485;51.536;3.816;2024-03-25T06:18:38;39.35;;;18.40;;
48685;SDS011;34485;51.536;3.816;2024-03-25T06:21:05;40.88;;;18.90;;
48685;SDS011;34485;51.536;3.816;2024-03-25T06:23:31;35.75;;;17.70;;
48685;SDS011;34485;51.536;3.816;2024-03-25T06:25:56;49.17;;;20.17;;
48685;SDS011;34485;51.536;3.816;2024-03-25T06:28:22;44.88;;;18.58;;
48685;SDS011;34485;51.536;3.816;2024-03-25T06:30:49;36.67;;;17.83;;
48685;SDS011;34485;51.536;3.816;2024-03-25T06:33:34;33.47;;;14.52;;
48685;SDS011;34485;51.536;3.816;2024-03-25T06:36:19;31.80;;;16.48;;
48685;SDS011;34485;51.536;3.816;2024-03-25T06:38:45;35.05;;;17.15;;
48685;SDS011;34485;51.536;3.816;2024-03-25T06:41:11;44.67;;;17.95;;
48685;SDS011;34485;51.536;3.816;2024-03-25T06:43:37;48.77;;;16.23;;
48685;SDS011;34485;51.536;3.816;2024-03-25T06:46:03;35.95;;;16.88;;
48685;SDS011;34485;51.536;3.816;2024-03-25T06:48:32;34.75;;;16.08;;
48685;SDS011;34485;51.536;3.816;2024-03-25T06:50:59;35.53;;;16.48;;
48685;SDS011;34485;51.536;3.816;2024-03-25T06:53:25;38.72;;;16.77;;
48685;SDS011;34485;51.536;3.816;2024-03-25T06:55:52;44.23;;;18.27;;
48685;SDS011;34485;51.536;3.816;2024-03-25T06:58:22;48.60;;;19.52;;
48685;SDS011;34485;51.536;3.816;2024-03-25T07:00:48;57.88;;;19.92;;
48685;SDS011;34485;51.536;3.816;2024-03-25T07:03:17;49.75;;;19.33;;
48685;SDS011;34485;51.536;3.816;2024-03-25T07:05:47;69.03;;;20.13;;
48685;SDS011;34485;51.536;3.816;2024-03-25T07:08:13;65.10;;;20.08;;
48685;SDS011;34485;51.536;3.816;2024-03-25T07:10:42;66.82;;;22.20;;
48685;SDS011;34485;51.536;3.816;2024-03-25T07:13:08;78.28;;;21.38;;
48685;SDS011;34485;51.536;3.816;2024-03-25T07:15:33;67.43;;;21.30;;
48685;SDS011;34485;51.536;3.816;2024-03-25T07:17:59;75.85;;;21.80;;
48685;SDS011;34485;51.536;3.816;2024-03-25T07:20:25;68.37;;;20.67;;
48685;SDS011;34485;51.536;3.816;2024-03-25T07:22:52;71.55;;;22.85;;
48685;SDS011;34485;51.536;3.816;2024-03-25T07:25:20;71.00;;;23.88;;
48685;SDS011;34485;51.536;3.816;2024-03-25T07:27:46;70.05;;;24.30;;
48685;SDS011;34485;51.536;3.816;2024-03-25T07:30:12;70.60;;;25.67;;
48685;SDS011;34485;51.536;3.816;2024-03-25T07:32:38;82.03;;;25.95;;
48685;SDS011;34485;51.536;3.816;2024-03-25T07:35:04;82.97;;;26.58;;
48685;SDS011;34485;51.536;3.816;2024-03-25T07:37:30;74.50;;;23.20;;
48685;SDS011;34485;51.536;3.816;2024-03-25T07:39:56;74.20;;;23.85;;
48685;SDS011;34485;51.536;3.816;2024-03-25T07:42:22;59.90;;;22.83;;
48685;SDS011;34485;51.536;3.816;2024-03-25T07:44:47;69.27;;;22.03;;
48685;SDS011;34485;51.536;3.816;2024-03-25T07:47:13;73.18;;;23.77;;
48685;SDS011;34485;51.536;3.816;2024-03-25T07:49:39;68.80;;;22.45;;
48685;SDS011;34485;51.536;3.816;2024-03-25T07:52:05;62.40;;;19.93;;
48685;SDS011;34485;51.536;3.816;2024-03-25T07:54:32;51.58;;;20.88;;
48685;SDS011;34485;51.536;3.816;2024-03-25T07:56:58;83.20;;;23.45;;
48685;SDS011;34485;51.536;3.816;2024-03-25T07:59:24;65.55;;;22.17;;
48685;SDS011;34485;51.536;3.816;2024-03-25T08:01:50;66.93;;;22.63;;
48685;SDS011;34485;51.536;3.816;2024-03-25T08:04:16;67.55;;;24.40;;
48685;SDS011;34485;51.536;3.816;2024-03-25T08:06:42;79.03;;;22.83;;
48685;SDS011;34485;51.536;3.816;2024-03-25T08:09:08;57.25;;;21.13;;
48685;SDS011;34485;51.536;3.816;2024-03-25T08:11:34;48.20;;;18.58;;
48685;SDS011;34485;51.536;3.816;2024-03-25T08:14:01;58.03;;;21.73;;
48685;SDS011;34485;51.536;3.816;2024-03-25T08:16:27;58.93;;;23.50;;
48685;SDS011;34485;51.536;3.816;2024-03-25T08:18:53;73.50;;;22.88;;
48685;SDS011;34485;51.536;3.816;2024-03-25T08:21:19;65.85;;;25.02;;
48685;SDS011;34485;51.536;3.816;2024-03-25T08:23:45;48.75;;;18.88;;
48685;SDS011;34485;51.536;3.816;2024-03-25T08:26:11;57.83;;;21.48;;
48685;SDS011;34485;51.536;3.816;2024-03-25T08:28:37;59.50;;;21.95;;
48685;SDS011;34485;51.536;3.816;2024-03-25T08:31:03;58.88;;;22.20;;
48685;SDS011;34485;51.536;3.816;2024-03-25T08:33:29;62.75;;;23.52;;
48685;SDS011;34485;51.536;3.816;2024-03-25T08:35:56;67.00;;;25.63;;
48685;SDS011;34485;51.536;3.816;2024-03-25T08:38:22;71.70;;;23.67;;
48685;SDS011;34485;51.536;3.816;2024-03-25T08:40:48;72.80;;;27.15;;
48685;SDS011;34485;51.536;3.816;2024-03-25T08:43:14;62.10;;;23.98;;
48685;SDS011;34485;51.536;3.816;2024-03-25T08:45:40;59.97;;;24.38;;
48685;SDS011;34485;51.536;3.816;2024-03-25T08:48:06;56.42;;;23.05;;
48685;SDS011;34485;51.536;3.816;2024-03-25T08:50:32;67.90;;;25.33;;
48685;SDS011;34485;51.536;3.816;2024-03-25T08:52:58;68.15;;;26.67;;
48685;SDS011;34485;51.536;3.816;2024-03-25T08:55:23;68.67;;;25.27;;
48685;SDS011;34485;51.536;3.816;2024-03-25T08:57:49;51.22;;;23.58;;
48685;SDS011;34485;51.536;3.816;2024-03-25T09:00:16;52.67;;;22.88;;
48685;SDS011;34485;51.536;3.816;2024-03-25T09:02:43;52.30;;;21.90;;
48685;SDS011;34485;51.536;3.816;2024-03-25T09:05:09;60.78;;;25.10;;
48685;SDS011;34485;51.536;3.816;2024-03-25T09:07:35;48.35;;;22.13;;
48685;SDS011;34485;51.536;3.816;2024-03-25T09:10:01;40.10;;;21.50;;
48685;SDS011;34485;51.536;3.816;2024-03-25T09:12:45;48.40;;;24.37;;
48685;SDS011;34485;51.536;3.816;2024-03-25T09:15:11;51.70;;;22.58;;
48685;SDS011;34485;51.536;3.816;2024-03-25T09:17:37;42.75;;;22.20;;
48685;SDS011;34485;51.536;3.816;2024-03-25T09:20:04;43.07;;;22.43;;
48685;SDS011;34485;51.536;3.816;2024-03-25T09:22:41;46.47;;;22.45;;
48685;SDS011;34485;51.536;3.816;2024-03-25T09:25:07;41.75;;;21.23;;
48685;SDS011;34485;51.536;3.816;2024-03-25T09:27:33;38.55;;;20.42;;
48685;SDS011;34485;51.536;3.816;2024-03-25T09:29:59;41.83;;;21.13;;
48685;SDS011;34485;51.536;3.816;2024-03-25T09:32:24;38.53;;;20.03;;
48685;SDS011;34485;51.536;3.816;2024-03-25T09:34:51;33.50;;;18.80;;
48685;SDS011;34485;51.536;3.816;2024-03-25T09:37:17;35.25;;;18.15;;
48685;SDS011;34485;51.536;3.816;2024-03-25T09:39:43;30.88;;;15.05;;
48685;SDS011;34485;51.536;3.816;2024-03-25T09:42:08;26.00;;;11.67;;
48685;SDS011;34485;51.536;3.816;2024-03-25T09:44:39;21.90;;;10.55;;
48685;SDS011;34485;51.536;3.816;2024-03-25T09:47:05;18.65;;;7.13;;
48685;SDS011;34485;51.536;3.816;2024-03-25T09:49:32;15.40;;;6.57;;
48685;SDS011;34485;51.536;3.816;2024-03-25T09:51:58;15.93;;;8.00;;
48685;SDS011;34485;51.536;3.816;2024-03-25T09:54:24;15.10;;;6.80;;
48685;SDS011;34485;51.536;3.816;2024-03-25T09:56:50;8.65;;;5.45;;
48685;SDS011;34485;51.536;3.816;2024-03-25T09:59:16;10.57;;;5.27;;
48685;SDS011;34485;51.536;3.816;2024-03-25T10:01:43;14.75;;;5.53;;
48685;SDS011;34485;51.536;3.816;2024-03-25T10:04:09;16.33;;;5.55;;
48685;SDS011;34485;51.536;3.816;2024-03-25T10:06:35;15.13;;;5.53;;
48685;SDS011;34485;51.536;3.816;2024-03-25T10:09:03;7.93;;;5.25;;
48685;SDS011;34485;51.536;3.816;2024-03-25T10:11:30;11.15;;;4.45;;
48685;SDS011;34485;51.536;3.816;2024-03-25T10:14:00;10.57;;;6.03;;
48685;SDS011;34485;51.536;3.816;2024-03-25T10:16:26;13.43;;;5.28;;
48685;SDS011;34485;51.536;3.816;2024-03-25T10:18:52;13.02;;;5.28;;
48685;SDS011;34485;51.536;3.816;2024-03-25T10:21:21;7.78;;;4.47;;
48685;SDS011;34485;51.536;3.816;2024-03-25T10:23:48;5.93;;;4.90;;
48685;SDS011;34485;51.536;3.816;2024-03-25T10:26:29;8.37;;;4.33;;
48685;SDS011;34485;51.536;3.816;2024-03-25T10:29:06;13.80;;;4.35;;
48685;SDS011;34485;51.536;3.816;2024-03-25T10:31:33;14.43;;;4.57;;
48685;SDS011;34485;51.536;3.816;2024-03-25T10:33:59;10.65;;;4.80;;
48685;SDS011;34485;51.536;3.816;2024-03-25T10:36:25;12.70;;;4.63;;
48685;SDS011;34485;51.536;3.816;2024-03-25T10:38:54;5.77;;;4.17;;
48685;SDS011;34485;51.536;3.816;2024-03-25T10:41:21;9.77;;;5.03;;
48685;SDS011;34485;51.536;3.816;2024-03-25T10:43:48;11.23;;;5.20;;
48685;SDS011;34485;51.536;3.816;2024-03-25T10:46:20;8.70;;;5.15;;
48685;SDS011;34485;51.536;3.816;2024-03-25T10:48:51;11.40;;;5.32;;
48685;SDS011;34485;51.536;3.816;2024-03-25T10:51:20;14.13;;;4.47;;
48685;SDS011;34485;51.536;3.816;2024-03-25T10:53:48;9.23;;;4.57;;
48685;SDS011;34485;51.536;3.816;2024-03-25T10:56:19;8.98;;;4.50;;
48685;SDS011;34485;51.536;3.816;2024-03-25T10:58:49;10.23;;;4.93;;
48685;SDS011;34485;51.536;3.816;2024-03-25T11:01:16;12.70;;;6.10;;
48685;SDS011;34485;51.536;3.816;2024-03-25T11:03:43;8.53;;;4.20;;
48685;SDS011;34485;51.536;3.816;2024-03-25T11:06:10;10.05;;;5.15;;
48685;SDS011;34485;51.536;3.816;2024-03-25T11:08:37;9.50;;;4.65;;
48685;SDS011;34485;51.536;3.816;2024-03-25T11:11:04;11.20;;;5.82;;
48685;SDS011;34485;51.536;3.816;2024-03-25T11:13:31;9.80;;;5.43;;
48685;SDS011;34485;51.536;3.816;2024-03-25T11:15:57;13.30;;;5.53;;
48685;SDS011;34485;51.536;3.816;2024-03-25T11:18:24;12.00;;;4.95;;
48685;SDS011;34485;51.536;3.816;2024-03-25T11:21:03;11.10;;;5.18;;
48685;SDS011;34485;51.536;3.816;2024-03-25T11:23:38;7.20;;;4.25;;
48685;SDS011;34485;51.536;3.816;2024-03-25T11:26:16;14.55;;;5.35;;
48685;SDS011;34485;51.536;3.816;2024-03-25T11:28:55;14.90;;;4.70;;
48685;SDS011;34485;51.536;3.816;2024-03-25T11:31:21;10.75;;;4.90;;
48685;SDS011;34485;51.536;3.816;2024-03-25T11:33:50;12.57;;;6.25;;
48685;SDS011;34485;51.536;3.816;2024-03-25T11:36:15;12.27;;;6.80;;
48685;SDS011;34485;51.536;3.816;2024-03-25T11:38:43;11.53;;;6.07;;
48685;SDS011;34485;51.536;3.816;2024-03-25T11:41:12;10.45;;;6.18;;
48685;SDS011;34485;51.536;3.816;2024-03-25T11:43:39;8.43;;;4.13;;
48685;SDS011;34485;51.536;3.816;2024-03-25T11:46:06;8.70;;;5.30;;
48685;SDS011;34485;51.536;3.816;2024-03-25T11:48:32;9.02;;;4.93;;
48685;SDS011;34485;51.536;3.816;2024-03-25T11:50:58;6.97;;;4.63;;
48685;SDS011;34485;51.536;3.816;2024-03-25T11:53:25;9.52;;;4.72;;
48685;SDS011;34485;51.536;3.816;2024-03-25T11:55:52;8.82;;;5.47;;
48685;SDS011;34485;51.536;3.816;2024-03-25T11:58:18;9.63;;;5.43;;
48685;SDS011;34485;51.536;3.816;2024-03-25T12:00:44;19.00;;;6.72;;
48685;SDS011;34485;51.536;3.816;2024-03-25T12:03:14;11.68;;;6.03;;
48685;SDS011;34485;51.536;3.816;2024-03-25T12:05:43;8.77;;;4.57;;
48685;SDS011;34485;51.536;3.816;2024-03-25T12:08:09;14.93;;;5.57;;
48685;SDS011;34485;51.536;3.816;2024-03-25T12:10:37;15.57;;;6.85;;
48685;SDS011;34485;51.536;3.816;2024-03-25T12:13:21;6.47;;;5.35;;
48685;SDS011;34485;51.536;3.816;2024-03-25T12:15:48;13.85;;;4.32;;
48685;SDS011;34485;51.536;3.816;2024-03-25T12:18:14;10.43;;;5.53;;
48685;SDS011;34485;51.536;3.816;2024-03-25T12:20:40;8.88;;;4.28;;
48685;SDS011;34485;51.536;3.816;2024-03-25T12:23:07;10.48;;;4.68;;
48685;SDS011;34485;51.536;3.816;2024-03-25T12:25:32;9.93;;;4.73;;
48685;SDS011;34485;51.536;3.816;2024-03-25T12:27:58;9.25;;;5.00;;
48685;SDS011;34485;51.536;3.816;2024-03-25T12:30:24;7.37;;;5.23;;
48685;SDS011;34485;51.536;3.816;2024-03-25T12:32:50;5.18;;;4.05;;
48685;SDS011;34485;51.536;3.816;2024-03-25T12:35:16;8.30;;;4.35;;
48685;SDS011;34485;51.536;3.816;2024-03-25T12:37:44;10.32;;;5.28;;
48685;SDS011;34485;51.536;3.816;2024-03-25T12:40:12;9.77;;;6.60;;
48685;SDS011;34485;51.536;3.816;2024-03-25T12:42:39;9.85;;;5.68;;
48685;SDS011;34485;51.536;3.816;2024-03-25T12:45:05;13.70;;;6.53;;
48685;SDS011;34485;51.536;3.816;2024-03-25T12:47:32;10.20;;;4.63;;
48685;SDS011;34485;51.536;3.816;2024-03-25T12:49:58;9.45;;;5.40;;
48685;SDS011;34485;51.536;3.816;2024-03-25T12:52:24;8.37;;;5.47;;
48685;SDS011;34485;51.536;3.816;2024-03-25T12:54:50;7.70;;;4.90;;
48685;SDS011;34485;51.536;3.816;2024-03-25T12:57:16;8.73;;;5.88;;
48685;SDS011;34485;51.536;3.816;2024-03-25T12:59:43;9.13;;;5.07;;
48685;SDS011;34485;51.536;3.816;2024-03-25T13:02:09;11.27;;;5.35;;
48685;SDS011;34485;51.536;3.816;2024-03-25T13:04:36;10.68;;;5.38;;
48685;SDS011;34485;51.536;3.816;2024-03-25T13:07:05;13.98;;;4.80;;
48685;SDS011;34485;51.536;3.816;2024-03-25T13:09:31;9.73;;;5.40;;
48685;SDS011;34485;51.536;3.816;2024-03-25T13:11:57;7.47;;;4.73;;
48685;SDS011;34485;51.536;3.816;2024-03-25T13:14:23;8.10;;;5.35;;
48685;SDS011;34485;51.536;3.816;2024-03-25T13:16:49;8.45;;;5.32;;
48685;SDS011;34485;51.536;3.816;2024-03-25T13:19:14;11.47;;;4.80;;
48685;SDS011;34485;51.536;3.816;2024-03-25T13:21:40;6.20;;;4.18;;
48685;SDS011;34485;51.536;3.816;2024-03-25T13:24:07;6.90;;;4.10;;
48685;SDS011;34485;51.536;3.816;2024-03-25T13:26:33;4.57;;;3.40;;
48685;SDS011;34485;51.536;3.816;2024-03-25T13:28:59;5.43;;;4.05;;
48685;SDS011;34485;51.536;3.816;2024-03-25T13:31:24;7.60;;;4.47;;
48685;SDS011;34485;51.536;3.816;2024-03-25T13:33:50;4.37;;;3.50;;
48685;SDS011;34485;51.536;3.816;2024-03-25T13:36:16;4.95;;;3.40;;
48685;SDS011;34485;51.536;3.816;2024-03-25T13:38:43;5.88;;;3.83;;
48685;SDS011;34485;51.536;3.816;2024-03-25T13:41:09;5.38;;;4.20;;
48685;SDS011;34485;51.536;3.816;2024-03-25T13:43:35;6.93;;;3.70;;
48685;SDS011;34485;51.536;3.816;2024-03-25T13:46:00;8.90;;;4.15;;
48685;SDS011;34485;51.536;3.816;2024-03-25T13:48:26;4.90;;;3.70;;
48685;SDS011;34485;51.536;3.816;2024-03-25T13:50:55;6.47;;;3.70;;
48685;SDS011;34485;51.536;3.816;2024-03-25T13:53:20;5.00;;;2.40;;
48685;SDS011;34485;51.536;3.816;2024-03-25T13:55:46;5.13;;;3.28;;
48685;SDS011;34485;51.536;3.816;2024-03-25T13:58:12;6.80;;;3.43;;
48685;SDS011;34485;51.536;3.816;2024-03-25T14:00:38;5.60;;;3.58;;
48685;SDS011;34485;51.536;3.816;2024-03-25T14:03:04;5.40;;;4.03;;
48685;SDS011;34485;51.536;3.816;2024-03-25T14:05:29;5.00;;;3.27;;
48685;SDS011;34485;51.536;3.816;2024-03-25T14:07:55;4.45;;;3.42;;
48685;SDS011;34485;51.536;3.816;2024-03-25T14:10:23;4.40;;;3.40;;
48685;SDS011;34485;51.536;3.816;2024-03-25T14:12:49;3.67;;;3.30;;
48685;SDS011;34485;51.536;3.816;2024-03-25T14:15:15;9.03;;;4.23;;
48685;SDS011;34485;51.536;3.816;2024-03-25T14:17:41;8.13;;;3.55;;
48685;SDS011;34485;51.536;3.816;2024-03-25T14:20:06;4.50;;;4.10;;
48685;SDS011;34485;51.536;3.816;2024-03-25T14:22:33;4.45;;;3.90;;
48685;SDS011;34485;51.536;3.816;2024-03-25T14:24:59;4.22;;;3.85;;
48685;SDS011;34485;51.536;3.816;2024-03-25T14:27:25;6.82;;;4.13;;
48685;SDS011;34485;51.536;3.816;2024-03-25T14:29:51;7.30;;;3.73;;